Moonbeam, Canada
Current Conditions -  °F | °C
As of 6:00 PM on Thursday 23 Oct 2014 (Local Time) from CYYU Reporting Station
Few Clouds Few Clouds  
Wind Chill: 44°   Ceiling: Unl
Heat Index: 48°   Visibility: 15mi
Dew Point: 28°   Wind: 9mph
Humidity: 46%   Direction: 170°S
Pressure: 30.03"   Gusts: NA
Location:  49.34°N, 82.15°W
Report Text: CYYU 232200Z 17008KT 15SM FEW240 09/M02 A3003 RMK CI1 SLP178
Loading
Personal Weather Stations






























Interactive Weather Map
Tropical Storm Tracking
New forecast layout! Learn more

10-Day Weather Forecast

Advertisements
Track Severe Weather on mobile